Time;durP1;ratioP1;P1;durP2;ratioP2;P2;SDS_P1;SDS_P2;PMS_P1;PMS_P2;Temp;Humidity;BMP_temperature;BMP_pressure;BME280_temperature;BME280_humidity;BME280_pressure;Samples;Min_cycle;Max_cycle;Signal;HPM_P1;HPM_P2
2021/08/26 00:07:37;;;;;;;12.50;7.15;;;14.30;99.90;;;;;;5053421;28;20036;-68
2021/08/26 00:10:06;;;;;;;9.52;6.38;;;14.30;99.90;;;;;;5053782;28;20021;-69
2021/08/26 00:12:34;;;;;;;10.80;6.80;;;14.30;99.90;;;;;;5053266;28;20033;-69
2021/08/26 00:15:00;;;;;;;9.30;6.43;;;14.20;99.90;;;;;;5054177;28;20132;-69
2021/08/26 00:17:26;;;;;;;11.07;6.57;;;14.20;99.90;;;;;;5053199;28;20437;-68
2021/08/26 00:19:53;;;;;;;11.02;7.03;;;14.20;99.90;;;;;;5053745;28;20025;-69
2021/08/26 00:22:19;;;;;;;9.95;6.78;;;14.20;99.90;;;;;;5053989;28;20417;-69
2021/08/26 00:24:45;;;;;;;11.18;6.45;;;14.10;99.90;;;;;;5053044;28;20041;-68
2021/08/26 00:27:11;;;;;;;11.13;7.18;;;14.10;99.90;;;;;;5053884;28;20029;-69
2021/08/26 00:29:37;;;;;;;11.48;7.20;;;14.10;99.90;;;;;;5052929;28;20028;-68
2021/08/26 00:32:03;;;;;;;11.13;6.53;;;14.00;99.90;;;;;;5053499;28;20033;-68
2021/08/26 00:34:29;;;;;;;11.63;7.10;;;14.00;99.90;;;;;;5052360;28;20037;-69
2021/08/26 00:36:54;;;;;;;8.18;6.22;;;13.90;99.90;;;;;;5053393;28;20382;-70
2021/08/26 00:39:20;;;;;;;10.68;7.18;;;13.90;99.90;;;;;;5053345;28;20100;-69
2021/08/26 00:41:45;;;;;;;11.02;7.53;;;13.80;99.90;;;;;;5052400;28;20061;-68
2021/08/26 00:44:11;;;;;;;11.50;7.18;;;13.80;99.90;;;;;;5053318;28;20060;-69
2021/08/26 00:46:38;;;;;;;9.88;6.30;;;13.70;99.90;;;;;;5050894;28;20037;-70
2021/08/26 00:49:17;;;;;;;12.07;7.50;;;13.60;99.90;;;;;;5053484;28;20022;-70
2021/08/26 00:51:45;;;;;;;13.38;7.78;;;13.60;99.90;;;;;;5052339;28;20029;-69
2021/08/26 00:54:14;;;;;;;10.60;6.93;;;13.60;99.90;;;;;;5053372;28;20037;-69
2021/08/26 00:56:39;;;;;;;10.00;6.90;;;13.60;99.90;;;;;;5052064;28;20032;-69
2021/08/26 00:59:07;;;;;;;11.45;6.68;;;13.60;99.90;;;;;;5053141;28;20025;-69
2021/08/26 01:01:55;;;;;;;8.98;6.40;;;13.50;99.90;;;;;;5051890;28;20421;-69
2021/08/26 01:04:45;;;;;;;13.25;6.85;;;13.50;99.90;;;;;;5053401;28;20028;-69
2021/08/26 01:07:30;;;;;;;10.27;6.90;;;13.50;99.90;;;;;;5032837;28;20125;-68
2021/08/26 01:10:07;;;;;;;11.18;5.93;;;13.40;99.90;;;;;;5041691;28;20037;-69
2021/08/26 01:12:34;;;;;;;10.18;6.47;;;13.40;99.90;;;;;;5051898;28;20037;-70
2021/08/26 01:15:00;;;;;;;9.52;6.32;;;13.40;99.90;;;;;;5052810;28;20079;-69
2021/08/26 01:17:29;;;;;;;9.68;6.63;;;13.30;99.90;;;;;;5052357;28;20517;-68
2021/08/26 01:19:57;;;;;;;9.40;6.28;;;13.30;99.90;;;;;;5052559;28;20025;-69
2021/08/26 01:22:25;;;;;;;11.07;6.95;;;13.20;99.90;;;;;;5052243;28;20063;-68
2021/08/26 01:25:05;;;;;;;12.57;7.13;;;13.20;99.90;;;;;;5052214;28;20033;-69
2021/08/26 01:27:51;;;;;;;9.25;5.97;;;13.10;99.90;;;;;;5051967;28;20112;-68
2021/08/26 01:30:22;;;;;;;10.18;6.28;;;13.10;99.90;;;;;;5052533;28;20043;-69
2021/08/26 01:32:56;;;;;;;10.70;6.35;;;13.00;99.90;;;;;;5052319;28;20028;-69
2021/08/26 01:35:26;;;;;;;10.05;6.25;;;13.00;99.90;;;;;;5051904;28;20486;-68
2021/08/26 01:37:53;;;;;;;9.63;6.15;;;12.90;99.90;;;;;;5051957;28;20028;-69
2021/08/26 01:40:37;;;;;;;9.20;5.78;;;12.90;99.90;;;;;;5052215;28;20401;-69
2021/08/26 01:43:08;;;;;;;9.18;6.07;;;12.90;99.90;;;;;;5052644;28;20116;-69
2021/08/26 01:45:34;;;;;;;9.20;6.13;;;12.90;99.90;;;;;;5051495;28;20036;-68
2021/08/26 01:48:00;;;;;;;9.45;6.05;;;12.90;99.90;;;;;;5051865;28;20025;-69
2021/08/26 01:50:27;;;;;;;11.20;6.85;;;12.80;99.90;;;;;;5051754;28;20037;-67
2021/08/26 01:52:53;;;;;;;10.20;6.68;;;12.90;99.90;;;;;;5051990;28;20055;-68
2021/08/26 01:55:19;;;;;;;8.43;5.88;;;12.80;99.90;;;;;;5052284;28;20021;-68
2021/08/26 01:57:44;;;;;;;9.48;6.07;;;12.90;99.90;;;;;;5051278;28;20175;-68
2021/08/26 02:00:11;;;;;;;10.13;5.97;;;12.90;99.90;;;;;;5052071;28;20452;-68
2021/08/26 02:02:36;;;;;;;10.70;6.53;;;12.90;99.90;;;;;;5051008;28;20037;-68
2021/08/26 02:05:02;;;;;;;10.68;6.65;;;12.90;99.90;;;;;;5051579;28;20024;-69
2021/08/26 02:07:28;;;;;;;13.30;6.70;;;13.00;99.90;;;;;;5050721;28;20376;-68
2021/08/26 02:09:53;;;;;;;14.20;7.78;;;13.00;99.90;;;;;;5051826;28;20040;-69
2021/08/26 02:12:19;;;;;;;9.82;6.45;;;13.10;99.90;;;;;;5051842;28;20040;-68
2021/08/26 02:14:44;;;;;;;8.43;5.72;;;13.00;99.90;;;;;;5050080;28;20727;-68
2021/08/26 02:17:11;;;;;;;9.50;6.28;;;13.00;99.90;;;;;;5051939;28;20025;-68
2021/08/26 02:19:36;;;;;;;9.27;5.80;;;13.00;99.90;;;;;;5051179;28;20039;-68
2021/08/26 02:22:02;;;;;;;7.88;5.55;;;13.00;99.90;;;;;;5051838;28;20100;-69
2021/08/26 02:24:28;;;;;;;10.90;6.32;;;12.90;99.90;;;;;;5050523;28;20390;-67
2021/08/26 02:26:54;;;;;;;8.98;5.43;;;12.90;99.90;;;;;;5052079;28;20029;-68
2021/08/26 02:29:19;;;;;;;9.35;5.82;;;12.80;99.90;;;;;;5051807;28;20102;-68
2021/08/26 02:31:45;;;;;;;7.70;5.65;;;12.80;99.90;;;;;;5050918;28;20032;-68
2021/08/26 02:34:10;;;;;;;11.30;6.97;;;12.80;99.90;;;;;;5051676;28;20036;-67
2021/08/26 02:36:36;;;;;;;9.93;6.63;;;12.80;99.90;;;;;;5050622;28;20025;-68
2021/08/26 02:39:02;;;;;;;10.38;6.38;;;12.90;99.90;;;;;;5051408;28;20021;-68
2021/08/26 02:41:28;;;;;;;11.68;6.88;;;12.90;99.90;;;;;;5050668;28;20057;-67
2021/08/26 02:43:53;;;;;;;11.63;6.43;;;12.90;99.90;;;;;;5051517;28;20352;-68
2021/08/26 02:46:19;;;;;;;12.60;7.03;;;12.90;99.90;;;;;;5051290;28;20036;-69
2021/08/26 02:48:45;;;;;;;10.88;6.57;;;13.00;99.90;;;;;;5050656;28;20029;-69
2021/08/26 02:51:10;;;;;;;13.88;6.82;;;13.10;99.90;;;;;;5050408;28;20482;-69
2021/08/26 02:53:36;;;;;;;10.45;6.25;;;13.10;99.90;;;;;;5050604;28;20370;-70
2021/08/26 02:56:02;;;;;;;11.40;6.40;;;13.20;99.90;;;;;;5051315;28;20502;-70
2021/08/26 02:58:27;;;;;;;15.20;7.20;;;13.30;99.90;;;;;;5050633;28;20041;-68
2021/08/26 03:00:53;;;;;;;11.65;6.13;;;13.30;99.90;;;;;;5051315;28;20029;-70
2021/08/26 03:03:19;;;;;;;9.77;6.10;;;13.40;99.90;;;;;;5051333;28;20121;-70
2021/08/26 03:05:44;;;;;;;12.50;5.90;;;13.50;99.90;;;;;;5050486;28;20064;-70
2021/08/26 03:08:10;;;;;;;10.00;5.93;;;13.50;99.90;;;;;;5051307;28;20108;-71
2021/08/26 03:10:36;;;;;;;9.82;6.43;;;13.60;99.90;;;;;;5049945;28;20493;-70
2021/08/26 03:13:03;;;;;;;14.35;6.93;;;13.60;99.90;;;;;;5051358;28;20033;-70
2021/08/26 03:15:28;;;;;;;9.80;6.03;;;13.80;99.90;;;;;;5051019;28;20068;-68
2021/08/26 03:17:54;;;;;;;9.25;5.85;;;13.90;99.90;;;;;;5050882;28;20053;-70
2021/08/26 03:20:20;;;;;;;8.32;5.53;;;13.90;99.90;;;;;;5051317;28;20356;-70
2021/08/26 03:22:47;;;;;;;11.30;6.28;;;13.90;99.90;;;;;;5049960;28;20800;-70
2021/08/26 03:25:12;;;;;;;11.02;6.40;;;14.00;99.90;;;;;;5050866;28;20104;-69
2021/08/26 03:27:38;;;;;;;10.40;6.00;;;14.00;99.90;;;;;;5054134;28;20120;-69
2021/08/26 03:30:05;;;;;;;10.45;6.15;;;14.10;99.90;;;;;;5054960;28;20390;-69
2021/08/26 03:32:30;;;;;;;8.57;5.93;;;14.10;99.90;;;;;;5053815;28;20032;-68
2021/08/26 03:34:56;;;;;;;10.30;5.57;;;14.20;99.90;;;;;;5054285;28;20029;-69
2021/08/26 03:37:22;;;;;;;9.45;5.80;;;14.20;99.90;;;;;;5054860;28;20052;-69
2021/08/26 03:39:47;;;;;;;10.85;6.07;;;14.30;99.90;;;;;;5053506;28;20616;-69
2021/08/26 03:42:13;;;;;;;9.60;6.25;;;14.30;99.90;;;;;;5055101;28;20029;-69
2021/08/26 03:44:38;;;;;;;9.20;5.72;;;14.30;99.90;;;;;;5053255;28;20374;-69
2021/08/26 03:47:04;;;;;;;10.23;6.47;;;14.30;99.90;;;;;;5054415;28;20107;-69
2021/08/26 03:49:30;;;;;;;8.77;5.78;;;14.30;99.90;;;;;;5053988;28;20074;-68
2021/08/26 03:51:56;;;;;;;7.13;5.00;;;14.30;99.90;;;;;;5054200;28;20037;-69
2021/08/26 03:54:22;;;;;;;8.20;5.55;;;14.30;99.90;;;;;;5054232;28;20501;-68
2021/08/26 03:56:48;;;;;;;9.18;5.10;;;14.30;99.90;;;;;;5053184;28;20040;-67
2021/08/26 03:59:14;;;;;;;10.38;6.10;;;14.30;99.90;;;;;;5054118;28;20098;-67
2021/08/26 04:01:40;;;;;;;10.57;6.63;;;14.20;99.90;;;;;;5053587;28;20108;-68
2021/08/26 04:04:06;;;;;;;10.85;5.80;;;14.20;99.90;;;;;;5054245;28;20045;-67
2021/08/26 04:06:31;;;;;;;9.20;5.75;;;14.20;99.90;;;;;;5053316;28;20116;-67
2021/08/26 04:08:57;;;;;;;11.38;6.10;;;14.20;99.90;;;;;;5052327;28;20086;-67
2021/08/26 04:11:22;;;;;;;10.38;5.53;;;14.20;99.90;;;;;;5053645;28;20029;-67
2021/08/26 04:13:48;;;;;;;9.85;5.90;;;14.20;99.90;;;;;;5053290;28;20037;-67
2021/08/26 04:16:15;;;;;;;9.35;5.93;;;14.10;99.90;;;;;;5053790;28;20021;-68
2021/08/26 04:18:40;;;;;;;9.02;5.45;;;14.20;99.90;;;;;;5053237;28;20083;-68
2021/08/26 04:21:06;;;;;;;12.65;6.55;;;14.20;99.90;;;;;;5054162;28;20025;-67
2021/08/26 04:23:32;;;;;;;8.85;5.55;;;14.20;99.90;;;;;;5052369;28;20382;-67
2021/08/26 04:25:58;;;;;;;11.45;6.35;;;14.20;99.90;;;;;;5051007;28;20025;-67
2021/08/26 04:28:24;;;;;;;8.85;5.85;;;14.20;99.90;;;;;;5053369;28;20028;-67
2021/08/26 04:30:49;;;;;;;8.65;5.38;;;14.20;99.90;;;;;;5052292;28;20075;-67
2021/08/26 04:33:15;;;;;;;7.63;5.22;;;14.20;99.90;;;;;;5052146;28;20028;-67
2021/08/26 04:35:40;;;;;;;12.25;6.80;;;14.20;99.90;;;;;;5052336;28;20025;-67
2021/08/26 04:38:06;;;;;;;12.30;6.00;;;14.20;99.90;;;;;;5052289;28;20029;-67
2021/08/26 04:40:32;;;;;;;11.82;6.40;;;14.20;99.90;;;;;;5052456;28;20102;-68
2021/08/26 04:42:57;;;;;;;8.15;5.45;;;14.20;99.90;;;;;;5053178;28;20033;-67
2021/08/26 04:45:23;;;;;;;9.93;5.68;;;14.20;99.90;;;;;;5052311;28;20033;-67
2021/08/26 04:47:49;;;;;;;7.93;5.65;;;14.20;99.90;;;;;;5051131;28;20217;-67
2021/08/26 04:50:15;;;;;;;10.18;5.97;;;14.20;99.90;;;;;;5052097;28;20021;-68
2021/08/26 04:52:40;;;;;;;8.65;6.00;;;14.30;99.90;;;;;;5051231;28;20148;-68
2021/08/26 04:55:06;;;;;;;11.63;5.95;;;14.20;99.90;;;;;;5051965;28;20029;-67
2021/08/26 04:57:32;;;;;;;8.70;5.90;;;14.30;99.90;;;;;;5050803;28;20432;-67
2021/08/26 04:59:58;;;;;;;10.98;6.18;;;14.30;99.90;;;;;;5051456;28;20112;-67
2021/08/26 05:02:23;;;;;;;11.25;6.35;;;14.30;99.90;;;;;;5051471;28;20462;-67
2021/08/26 05:04:49;;;;;;;8.38;5.40;;;14.40;99.90;;;;;;5050587;28;20040;-67
2021/08/26 05:07:15;;;;;;;11.50;6.13;;;14.40;99.90;;;;;;5051761;28;20036;-67
2021/08/26 05:09:41;;;;;;;11.00;6.05;;;14.40;99.90;;;;;;5050391;28;20411;-67
2021/08/26 05:12:08;;;;;;;9.48;5.88;;;14.40;99.90;;;;;;5051245;28;20112;-68
2021/08/26 05:14:34;;;;;;;10.13;6.40;;;14.50;99.90;;;;;;5050654;28;20037;-67
2021/08/26 05:16:59;;;;;;;9.75;6.22;;;14.50;99.90;;;;;;5051630;28;20027;-68
2021/08/26 05:19:25;;;;;;;9.27;6.10;;;14.50;99.90;;;;;;5051349;28;20071;-67
2021/08/26 05:21:51;;;;;;;11.27;6.10;;;14.50;99.90;;;;;;5051693;28;20528;-68
2021/08/26 05:24:17;;;;;;;10.15;6.25;;;14.60;99.90;;;;;;5052231;28;20033;-68
2021/08/26 05:26:43;;;;;;;11.52;7.03;;;14.60;99.90;;;;;;5050999;28;20036;-68
2021/08/26 05:29:09;;;;;;;8.65;5.80;;;14.70;99.90;;;;;;5052331;28;20021;-68
2021/08/26 05:31:34;;;;;;;8.88;5.35;;;14.70;99.90;;;;;;5051498;28;20025;-68
2021/08/26 05:34:00;;;;;;;10.75;6.55;;;14.80;99.90;;;;;;5052954;28;20044;-68
2021/08/26 05:36:25;;;;;;;11.65;6.40;;;14.80;99.90;;;;;;5052853;28;20029;-68
2021/08/26 05:38:51;;;;;;;10.27;6.80;;;14.90;99.90;;;;;;5052081;28;20025;-68
2021/08/26 05:41:17;;;;;;;12.20;6.38;;;14.90;99.90;;;;;;5051925;28;20049;-68
2021/08/26 05:43:43;;;;;;;10.75;7.10;;;14.90;99.90;;;;;;5051071;28;20037;-70
2021/08/26 05:46:08;;;;;;;12.60;6.82;;;15.00;99.90;;;;;;5052079;28;20029;-67
2021/08/26 05:48:34;;;;;;;9.65;6.20;;;15.00;99.90;;;;;;5051524;28;20029;-67
2021/08/26 05:51:00;;;;;;;9.65;6.43;;;15.00;99.90;;;;;;5052159;28;20028;-70
2021/08/26 05:53:26;;;;;;;10.07;6.15;;;15.10;99.90;;;;;;5052245;28;20028;-68
2021/08/26 05:55:52;;;;;;;10.30;6.85;;;15.10;99.90;;;;;;5051287;28;20033;-70
2021/08/26 05:58:17;;;;;;;11.73;6.75;;;15.20;99.90;;;;;;5052253;28;20482;-68
2021/08/26 06:00:43;;;;;;;13.32;7.50;;;15.20;99.90;;;;;;5050161;28;20029;-67
2021/08/26 06:03:09;;;;;;;11.65;7.30;;;15.20;99.90;;;;;;5052033;28;20108;-67
2021/08/26 06:05:34;;;;;;;14.45;7.05;;;15.30;99.90;;;;;;5050183;28;20032;-67
2021/08/26 06:08:00;;;;;;;11.05;6.70;;;15.30;99.90;;;;;;5051681;28;20048;-68
2021/08/26 06:10:26;;;;;;;14.23;7.85;;;15.30;99.90;;;;;;5051275;28;20032;-67
2021/08/26 06:12:52;;;;;;;12.07;7.68;;;15.40;99.90;;;;;;5050702;28;20052;-67
2021/08/26 06:15:18;;;;;;;15.95;7.35;;;15.40;99.90;;;;;;5051703;28;20113;-68
2021/08/26 06:17:44;;;;;;;16.08;9.52;;;15.30;99.90;;;;;;5050822;28;20451;-67
2021/08/26 06:20:14;;;;;;;18.20;9.35;;;15.40;99.90;;;;;;5051508;28;20029;-67
2021/08/26 06:22:41;;;;;;;11.90;8.98;;;15.40;99.90;;;;;;5050848;28;20025;-67
2021/08/26 06:25:07;;;;;;;12.15;7.78;;;15.40;99.90;;;;;;5051562;28;20094;-67
2021/08/26 06:27:33;;;;;;;12.30;8.38;;;15.40;99.90;;;;;;5051433;28;20036;-67
2021/08/26 06:29:59;;;;;;;16.50;7.97;;;15.30;99.90;;;;;;5050910;28;20021;-67
2021/08/26 06:32:25;;;;;;;15.45;8.25;;;15.30;99.90;;;;;;5051617;28;20029;-67
2021/08/26 06:34:51;;;;;;;12.90;8.35;;;15.30;99.90;;;;;;5050711;28;20052;-67
2021/08/26 06:37:17;;;;;;;13.75;7.22;;;15.30;99.90;;;;;;5051114;28;20068;-67
2021/08/26 06:39:42;;;;;;;12.25;8.13;;;15.30;99.90;;;;;;5050785;28;20063;-68
2021/08/26 06:42:08;;;;;;;14.85;8.30;;;15.30;99.90;;;;;;5051629;28;20108;-67
2021/08/26 06:44:34;;;;;;;13.82;8.85;;;15.30;99.90;;;;;;5050903;28;20056;-67
2021/08/26 06:47:00;;;;;;;13.25;9.63;;;15.30;99.90;;;;;;5051128;28;20033;-67
2021/08/26 06:49:25;;;;;;;15.20;8.75;;;15.40;99.90;;;;;;5051315;28;20032;-67
2021/08/26 06:51:51;;;;;;;10.07;7.50;;;15.40;99.90;;;;;;5050680;28;20405;-68
2021/08/26 06:54:17;;;;;;;16.83;8.70;;;15.40;99.90;;;;;;5051220;28;20055;-67
2021/08/26 06:56:42;;;;;;;11.57;7.60;;;15.40;99.90;;;;;;5050495;28;20112;-67
2021/08/26 06:59:08;;;;;;;14.85;7.80;;;15.30;99.90;;;;;;5051256;28;20029;-67
2021/08/26 07:01:33;;;;;;;17.55;9.27;;;15.40;99.90;;;;;;5053109;28;20021;-67
2021/08/26 07:03:59;;;;;;;15.00;8.50;;;15.40;99.90;;;;;;5053953;28;20489;-67
2021/08/26 07:06:28;;;;;;;15.35;8.35;;;15.50;99.90;;;;;;5055230;28;20033;-68
2021/08/26 07:08:55;;;;;;;20.38;10.25;;;15.50;99.90;;;;;;5054264;28;20036;-67
2021/08/26 07:11:20;;;;;;;16.58;9.18;;;15.60;99.90;;;;;;5054585;28;20033;-67
2021/08/26 07:13:46;;;;;;;16.30;9.32;;;15.60;99.90;;;;;;5054238;28;20039;-67
2021/08/26 07:16:12;;;;;;;13.65;8.10;;;15.60;99.90;;;;;;5054548;28;20028;-67
2021/08/26 07:18:37;;;;;;;17.60;9.52;;;15.50;99.90;;;;;;5054395;28;20108;-67
2021/08/26 07:21:03;;;;;;;17.92;10.25;;;15.50;99.90;;;;;;5053056;28;20037;-67
2021/08/26 07:23:29;;;;;;;14.38;10.00;;;15.50;99.90;;;;;;5053955;28;20021;-67
2021/08/26 07:25:54;;;;;;;13.23;8.80;;;15.50;99.90;;;;;;5053884;28;20880;-67
2021/08/26 07:28:20;;;;;;;14.75;9.13;;;15.50;99.90;;;;;;5054838;28;20078;-67
2021/08/26 07:30:46;;;;;;;11.68;7.97;;;15.60;99.90;;;;;;5053784;28;20070;-67
2021/08/26 07:33:12;;;;;;;22.17;10.68;;;15.60;99.90;;;;;;5054540;28;20021;-67
2021/08/26 07:35:37;;;;;;;18.58;9.70;;;15.70;99.90;;;;;;5053955;28;20033;-67
2021/08/26 07:38:03;;;;;;;14.60;9.52;;;15.80;99.90;;;;;;5052950;28;20029;-67
2021/08/26 07:40:29;;;;;;;19.80;11.07;;;15.80;99.90;;;;;;5054232;28;20045;-67
2021/08/26 07:42:54;;;;;;;19.88;11.70;;;15.90;99.90;;;;;;5053620;28;20033;-67
2021/08/26 07:45:20;;;;;;;21.40;10.50;;;15.80;99.90;;;;;;5054365;28;20036;-67
2021/08/26 07:47:46;;;;;;;19.35;9.80;;;15.80;99.90;;;;;;5053739;28;20035;-67
2021/08/26 07:50:12;;;;;;;19.25;10.35;;;15.80;99.90;;;;;;5054570;28;20033;-67
2021/08/26 07:52:38;;;;;;;16.15;9.68;;;15.80;99.90;;;;;;5053567;28;20075;-67
2021/08/26 07:55:04;;;;;;;12.15;8.57;;;15.80;99.90;;;;;;5053618;28;20045;-67
2021/08/26 07:57:31;;;;;;;18.33;10.35;;;15.90;99.90;;;;;;5053527;28;20546;-67
2021/08/26 07:59:57;;;;;;;14.77;9.48;;;15.90;99.90;;;;;;5053076;28;20070;-67
2021/08/26 08:02:23;;;;;;;16.20;9.18;;;15.90;99.90;;;;;;5053813;28;20021;-67
2021/08/26 08:04:48;;;;;;;15.73;7.93;;;16.00;99.90;;;;;;5052873;28;20108;-67
2021/08/26 08:07:15;;;;;;;15.35;7.97;;;16.00;99.90;;;;;;5053750;28;20021;-67
2021/08/26 08:09:41;;;;;;;14.10;9.20;;;16.00;99.90;;;;;;5052587;28;20091;-67
2021/08/26 08:12:07;;;;;;;14.55;8.25;;;16.10;99.90;;;;;;5053583;28;20044;-67
2021/08/26 08:14:34;;;;;;;16.63;8.65;;;16.10;99.90;;;;;;5053682;28;20032;-67
2021/08/26 08:17:00;;;;;;;20.67;9.55;;;16.10;99.90;;;;;;5052430;28;20044;-67
2021/08/26 08:19:26;;;;;;;14.77;8.48;;;16.10;99.90;;;;;;5053700;28;20032;-67
2021/08/26 08:21:52;;;;;;;13.38;8.55;;;16.10;99.90;;;;;;5052723;28;20034;-67
2021/08/26 08:24:17;;;;;;;14.80;9.57;;;16.10;99.90;;;;;;5053533;28;20453;-67
2021/08/26 08:26:43;;;;;;;13.70;9.05;;;16.20;99.90;;;;;;5052587;28;20049;-67
2021/08/26 08:29:09;;;;;;;14.25;9.43;;;16.20;99.90;;;;;;5052136;28;20031;-67
2021/08/26 08:31:35;;;;;;;18.38;10.85;;;16.10;99.90;;;;;;5053192;28;20083;-67
2021/08/26 08:34:00;;;;;;;14.07;10.68;;;16.00;99.90;;;;;;5052233;28;20035;-67
2021/08/26 08:36:27;;;;;;;15.52;9.93;;;15.80;99.90;;;;;;5053113;28;20135;-67
2021/08/26 08:38:53;;;;;;;18.35;11.80;;;15.70;99.90;;;;;;5052291;28;20025;-67
2021/08/26 08:41:20;;;;;;;14.63;10.48;;;15.60;99.90;;;;;;5053225;28;20119;-67
2021/08/26 08:43:47;;;;;;;17.48;11.75;;;15.50;99.90;;;;;;5052364;28;20031;-67
2021/08/26 08:46:13;;;;;;;20.77;11.80;;;15.40;99.90;;;;;;5052977;28;20029;-67
2021/08/26 08:48:41;;;;;;;15.98;11.35;;;15.20;99.90;;;;;;5052184;28;20033;-67
2021/08/26 08:51:09;;;;;;;17.13;11.05;;;15.20;99.90;;;;;;5052688;28;20032;-67
2021/08/26 08:53:36;;;;;;;19.98;11.30;;;15.10;99.90;;;;;;5052387;28;20021;-67
2021/08/26 08:56:06;;;;;;;16.17;11.50;;;15.10;99.90;;;;;;5051302;28;20068;-67
2021/08/26 08:58:39;;;;;;;18.08;12.05;;;15.10;99.90;;;;;;5052336;28;20382;-67
2021/08/26 09:01:06;;;;;;;20.65;12.43;;;15.10;99.90;;;;;;5052406;28;20040;-67
2021/08/26 09:03:34;;;;;;;17.05;12.25;;;15.10;99.90;;;;;;5052980;28;20044;-68
2021/08/26 09:06:00;;;;;;;18.63;12.52;;;15.00;99.90;;;;;;5048736;28;20050;-67
2021/08/26 09:08:28;;;;;;;17.27;11.40;;;15.10;99.90;;;;;;5052772;28;20366;-67
2021/08/26 09:11:19;;;;;;;19.58;11.52;;;15.10;99.90;;;;;;5051011;28;20060;-68
2021/08/26 09:13:45;;;;;;;19.23;12.15;;;15.10;99.90;;;;;;5051725;28;20055;-67
2021/08/26 09:16:12;;;;;;;20.75;12.18;;;15.20;99.90;;;;;;5052486;28;20033;-67
2021/08/26 09:18:37;;;;;;;16.25;12.07;;;15.20;99.90;;;;;;5052282;28;20025;-67
2021/08/26 09:21:06;;;;;;;21.77;12.25;;;15.20;99.90;;;;;;5051601;28;20025;-67
2021/08/26 09:23:55;;;;;;;18.85;12.65;;;15.10;99.90;;;;;;5051877;28;20032;-67
2021/08/26 09:26:22;;;;;;;17.75;13.35;;;15.10;99.90;;;;;;5052634;28;20139;-67
2021/08/26 09:28:49;;;;;;;20.40;14.15;;;15.10;99.90;;;;;;5051059;28;20032;-67
2021/08/26 09:31:22;;;;;;;16.33;11.88;;;15.10;99.90;;;;;;5051481;28;20029;-68
2021/08/26 09:33:56;;;;;;;18.08;14.30;;;15.10;99.90;;;;;;5051067;28;20033;-67
2021/08/26 09:36:27;;;;;;;18.02;14.38;;;15.10;99.90;;;;;;5052032;28;20064;-69
2021/08/26 09:38:54;;;;;;;20.27;13.80;;;15.10;99.90;;;;;;5051220;28;20025;-68
2021/08/26 09:41:45;;;;;;;17.55;14.27;;;15.10;99.90;;;;;;5052036;28;20131;-68
2021/08/26 09:44:14;;;;;;;19.70;13.90;;;15.00;99.90;;;;;;5051918;28;20124;-68
2021/08/26 09:46:40;;;;;;;22.88;14.13;;;14.90;99.90;;;;;;5052012;28;20033;-68
2021/08/26 09:49:12;;;;;;;21.45;14.30;;;14.80;99.90;;;;;;5051414;28;20029;-68
2021/08/26 09:51:40;;;;;;;17.40;13.30;;;14.70;99.90;;;;;;5052207;28;20107;-67
2021/08/26 09:54:36;;;;;;;21.45;14.73;;;14.50;99.90;;;;;;5051953;28;20025;-67
2021/08/26 09:57:02;;;;;;;17.85;12.85;;;14.50;99.90;;;;;;5050853;28;20615;-68
2021/08/26 09:59:46;;;;;;;16.15;12.70;;;14.70;99.90;;;;;;5051729;28;20044;-67
2021/08/26 10:02:12;;;;;;;13.55;10.73;;;14.90;99.90;;;;;;5052209;28;20052;-67
2021/08/26 10:04:38;;;;;;;14.50;11.57;;;15.00;99.90;;;;;;5050821;28;20068;-68
2021/08/26 10:07:04;;;;;;;13.15;9.80;;;15.00;99.90;;;;;;5051016;28;20051;-68
2021/08/26 10:09:31;;;;;;;9.30;7.63;;;15.10;99.90;;;;;;5051194;28;20025;-67
2021/08/26 10:11:58;;;;;;;11.02;7.80;;;15.00;99.90;;;;;;5049689;28;20037;-67
2021/08/26 10:14:24;;;;;;;10.85;8.95;;;14.90;99.90;;;;;;5051399;28;20024;-67
2021/08/26 10:16:50;;;;;;;9.13;7.47;;;14.80;99.90;;;;;;5050748;28;20120;-67
2021/08/26 10:19:16;;;;;;;9.80;6.88;;;14.60;99.90;;;;;;5051392;28;20039;-68
2021/08/26 10:21:43;;;;;;;9.00;7.07;;;14.60;99.90;;;;;;5051449;28;20033;-67
2021/08/26 10:24:14;;;;;;;7.38;5.22;;;14.60;99.90;;;;;;5051471;28;20064;-67
2021/08/26 10:26:50;;;;;;;5.28;4.45;;;14.50;99.90;;;;;;5051453;28;20025;-68
2021/08/26 10:29:17;;;;;;;3.70;3.28;;;14.40;99.90;;;;;;5051511;28;20035;-68
2021/08/26 10:31:57;;;;;;;3.80;3.40;;;14.40;99.90;;;;;;5050954;28;20518;-67
2021/08/26 10:34:26;;;;;;;4.60;3.75;;;14.30;99.90;;;;;;5050924;28;20064;-67
2021/08/26 10:36:54;;;;;;;3.95;3.38;;;14.20;99.90;;;;;;5053767;28;20029;-67
2021/08/26 10:39:44;;;;;;;4.47;3.80;;;14.30;99.90;;;;;;5055677;28;20021;-68
2021/08/26 10:42:32;;;;;;;5.18;3.40;;;14.30;99.90;;;;;;5054416;28;20060;-67
2021/08/26 10:45:20;;;;;;;3.45;3.15;;;14.50;99.90;;;;;;5054652;28;20079;-67
2021/08/26 10:47:57;;;;;;;3.10;2.80;;;14.60;99.90;;;;;;5055202;28;20359;-67
2021/08/26 10:50:26;;;;;;;3.45;3.05;;;14.70;99.90;;;;;;5055178;28;20090;-67
2021/08/26 10:53:04;;;;;;;3.30;2.97;;;14.80;99.90;;;;;;5054352;28;20017;-67
2021/08/26 10:55:31;;;;;;;4.88;3.28;;;14.90;99.90;;;;;;5055226;28;20025;-67
2021/08/26 10:58:25;;;;;;;4.25;3.58;;;15.00;99.90;;;;;;5053449;28;20401;-68
2021/08/26 11:00:55;;;;;;;3.88;3.53;;;15.10;99.90;;;;;;5054230;28;20049;-68
2021/08/26 11:03:33;;;;;;;5.35;3.65;;;15.30;99.90;;;;;;5054940;28;20428;-68
2021/08/26 11:06:22;;;;;;;4.30;3.60;;;15.60;99.90;;;;;;5053723;28;20052;-67
2021/08/26 11:08:56;;;;;;;4.60;3.30;;;15.90;99.90;;;;;;5050214;28;20068;-68
2021/08/26 11:11:30;;;;;;;4.07;3.40;;;16.20;99.90;;;;;;5035049;28;20029;-69
2021/08/26 11:14:02;;;;;;;5.28;3.70;;;16.60;99.90;;;;;;5034347;28;20394;-68
2021/08/26 11:16:27;;;;;;;5.43;3.80;;;16.90;99.90;;;;;;5035005;28;20025;-68
2021/08/26 11:19:19;;;;;;;6.53;3.83;;;17.20;99.90;;;;;;5034281;28;20044;-68
2021/08/26 11:21:45;;;;;;;5.50;4.03;;;17.50;99.90;;;;;;5033895;28;20025;-68
2021/08/26 11:24:31;;;;;;;5.10;4.60;;;17.80;99.90;;;;;;5034682;28;20171;-68
2021/08/26 11:26:57;;;;;;;6.22;4.40;;;18.10;99.90;;;;;;5034201;28;20029;-68
2021/08/26 11:29:23;;;;;;;7.68;3.83;;;18.20;99.90;;;;;;5034711;28;20029;-68
2021/08/26 11:31:54;;;;;;;5.60;3.95;;;18.30;99.90;;;;;;5033911;28;20022;-68
2021/08/26 11:34:55;;;;;;;6.15;4.63;;;18.40;99.90;;;;;;5036721;28;20060;-68
2021/08/26 11:37:34;;;;;;;7.63;5.65;;;18.60;99.90;;;;;;5054448;28;20061;-68
2021/08/26 11:40:07;;;;;;;7.30;5.45;;;18.60;99.90;;;;;;5054019;28;20501;-68
2021/08/26 11:42:41;;;;;;;8.00;5.07;;;18.50;99.90;;;;;;5054763;28;20167;-68
2021/08/26 11:45:24;;;;;;;9.40;5.88;;;18.20;97.80;;;;;;5053660;28;20035;-68
2021/08/26 11:47:54;;;;;;;8.07;5.97;;;18.00;98.10;;;;;;5053375;28;20028;-67
2021/08/26 11:50:22;;;;;;;8.73;5.97;;;17.90;99.90;;;;;;5054153;28;20025;-67
2021/08/26 11:52:52;;;;;;;11.95;6.80;;;17.80;99.80;;;;;;5053865;28;20113;-67
2021/08/26 11:55:19;;;;;;;9.33;5.87;;;17.50;99.90;;;;;;5052862;28;20520;-67
2021/08/26 11:57:45;;;;;;;9.02;5.93;;;17.30;99.90;;;;;;5054053;28;20020;-67
2021/08/26 12:00:15;;;;;;;10.73;6.18;;;17.20;99.90;;;;;;5053300;28;20155;-66
2021/08/26 12:02:48;;;;;;;8.43;5.93;;;17.10;99.90;;;;;;5053867;28;20563;-68
2021/08/26 12:05:15;;;;;;;10.70;6.20;;;17.10;99.90;;;;;;5054143;28;20033;-68
2021/08/26 12:07:45;;;;;;;9.38;6.43;;;17.10;99.90;;;;;;5053939;28;20122;-68
2021/08/26 12:10:21;;;;;;;8.52;5.78;;;17.10;99.90;;;;;;5053265;28;20051;-68
2021/08/26 12:12:50;;;;;;;16.05;7.07;;;17.00;99.90;;;;;;5053393;28;20120;-68
2021/08/26 12:15:29;;;;;;;9.82;6.55;;;16.80;99.90;;;;;;5053591;28;20484;-68
2021/08/26 12:18:06;;;;;;;10.48;5.90;;;16.80;99.90;;;;;;5053468;28;20029;-68
2021/08/26 12:20:36;;;;;;;12.60;5.82;;;16.70;99.90;;;;;;5054059;28;20092;-69
2021/08/26 12:23:03;;;;;;;9.80;6.53;;;16.80;99.90;;;;;;5053222;28;20032;-68
2021/08/26 12:25:35;;;;;;;10.02;6.15;;;16.90;99.90;;;;;;5053489;28;20700;-68
2021/08/26 12:28:07;;;;;;;10.00;5.88;;;16.90;99.90;;;;;;5053221;28;20478;-68
2021/08/26 12:30:44;;;;;;;10.38;5.82;;;17.00;99.90;;;;;;5053813;28;20029;-68
2021/08/26 12:33:19;;;;;;;7.32;5.55;;;17.10;99.90;;;;;;5052951;28;20036;-68
2021/08/26 12:35:58;;;;;;;9.07;5.75;;;17.30;99.90;;;;;;5053131;28;20414;-67
2021/08/26 12:38:37;;;;;;;8.73;5.53;;;17.60;99.90;;;;;;5053679;28;20064;-67
2021/08/26 12:41:07;;;;;;;9.77;5.43;;;18.00;98.90;;;;;;5052500;28;20102;-67
2021/08/26 12:43:44;;;;;;;;;;;18.30;97.20;;;;;;5054175;28;20028;-68
2021/08/26 12:46:16;;;;;;;6.90;5.20;;;18.30;98.60;;;;;;5051346;28;20260;-68
2021/08/26 12:48:43;;;;;;;11.15;6.05;;;18.60;98.50;;;;;;5053342;28;20025;-68
2021/08/26 12:51:27;;;;;;;9.90;5.60;;;18.80;96.40;;;;;;5052588;28;20024;-67